sensor_id;sensor_type;location;lat;lon;timestamp;pressure;altitude;pressure_sealevel;temperature;humidity
71109;BME280;59614;51.012;-1.648;2023-04-22T00:02:25;99906.19;;;5.65;99.15
71109;BME280;59614;51.012;-1.648;2023-04-22T00:04:51;99913.16;;;5.72;97.55
71109;BME280;59614;51.012;-1.648;2023-04-22T00:07:17;99892.22;;;5.72;97.26
71109;BME280;59614;51.012;-1.648;2023-04-22T00:09:43;99900.91;;;5.79;97.04
71109;BME280;59614;51.012;-1.648;2023-04-22T00:12:09;99895.66;;;5.81;96.45
71109;BME280;59614;51.012;-1.648;2023-04-22T00:14:36;99887.88;;;5.64;97.26
71109;BME280;59614;51.012;-1.648;2023-04-22T00:17:01;99890.53;;;5.56;95.76
71109;BME280;59614;51.012;-1.648;2023-04-22T00:19:27;99899.38;;;5.27;96.01
71109;BME280;59614;51.012;-1.648;2023-04-22T00:21:53;99890.72;;;4.97;96.71
71109;BME280;59614;51.012;-1.648;2023-04-22T00:24:18;99882.94;;;4.77;96.80
71109;BME280;59614;51.012;-1.648;2023-04-22T00:26:44;99880.31;;;4.66;97.78
71109;BME280;59614;51.012;-1.648;2023-04-22T00:29:09;99875.97;;;4.60;99.03
71109;BME280;59614;51.012;-1.648;2023-04-22T00:31:34;99875.09;;;4.57;99.59
71109;BME280;59614;51.012;-1.648;2023-04-22T00:34:00;99870.72;;;4.57;99.75
71109;BME280;59614;51.012;-1.648;2023-04-22T00:36:26;99868.13;;;4.45;99.67
71109;BME280;59614;51.012;-1.648;2023-04-22T00:38:52;99871.63;;;4.38;100.00
71109;BME280;59614;51.012;-1.648;2023-04-22T00:41:18;99862.94;;;4.37;100.00
71109;BME280;59614;51.012;-1.648;2023-04-22T00:43:44;99861.16;;;4.55;100.00
71109;BME280;59614;51.012;-1.648;2023-04-22T00:46:10;99864.63;;;4.63;100.00
71109;BME280;59614;51.012;-1.648;2023-04-22T00:48:36;99853.31;;;4.64;100.00
71109;BME280;59614;51.012;-1.648;2023-04-22T00:51:02;99852.41;;;4.74;100.00
71109;BME280;59614;51.012;-1.648;2023-04-22T00:53:28;99846.28;;;4.85;100.00
71109;BME280;59614;51.012;-1.648;2023-04-22T00:55:53;99844.56;;;4.82;100.00
71109;BME280;59614;51.012;-1.648;2023-04-22T00:58:20;99849.84;;;4.67;100.00
71109;BME280;59614;51.012;-1.648;2023-04-22T01:00:46;99843.75;;;4.60;100.00
71109;BME280;59614;51.012;-1.648;2023-04-22T01:03:13;99846.34;;;4.51;100.00
71109;BME280;59614;51.012;-1.648;2023-04-22T01:05:39;99837.66;;;4.45;100.00
71109;BME280;59614;51.012;-1.648;2023-04-22T01:08:05;99843.75;;;4.37;100.00
71109;BME280;59614;51.012;-1.648;2023-04-22T01:10:30;99841.13;;;4.32;100.00
71109;BME280;59614;51.012;-1.648;2023-04-22T01:12:56;99843.75;;;4.23;100.00
71109;BME280;59614;51.012;-1.648;2023-04-22T01:15:21;99842.00;;;4.09;100.00
71109;BME280;59614;51.012;-1.648;2023-04-22T01:17:47;99842.03;;;4.03;100.00
71109;BME280;59614;51.012;-1.648;2023-04-22T01:20:13;99833.28;;;3.95;100.00
71109;BME280;59614;51.012;-1.648;2023-04-22T01:22:41;99827.22;;;3.97;100.00
71109;BME280;59614;51.012;-1.648;2023-04-22T01:25:08;99825.47;;;3.96;100.00
71109;BME280;59614;51.012;-1.648;2023-04-22T01:27:36;99823.72;;;3.97;100.00
71109;BME280;59614;51.012;-1.648;2023-04-22T01:30:03;99827.19;;;3.86;100.00
71109;BME280;59614;51.012;-1.648;2023-04-22T01:32:29;99822.84;;;4.01;100.00
71109;BME280;59614;51.012;-1.648;2023-04-22T01:34:55;99828.06;;;3.95;100.00
71109;BME280;59614;51.012;-1.648;2023-04-22T01:37:21;99825.47;;;3.93;100.00
71109;BME280;59614;51.012;-1.648;2023-04-22T01:39:47;99823.72;;;3.88;100.00
71109;BME280;59614;51.012;-1.648;2023-04-22T01:42:13;99830.66;;;3.90;100.00
71109;BME280;59614;51.012;-1.648;2023-04-22T01:44:38;99830.69;;;3.87;100.00
71109;BME280;59614;51.012;-1.648;2023-04-22T01:47:03;99828.06;;;3.85;100.00
71109;BME280;59614;51.012;-1.648;2023-04-22T01:49:29;99824.56;;;3.83;100.00
71109;BME280;59614;51.012;-1.648;2023-04-22T01:51:59;99822.84;;;3.82;100.00
71109;BME280;59614;51.012;-1.648;2023-04-22T01:54:24;99815.88;;;3.86;100.00
71109;BME280;59614;51.012;-1.648;2023-04-22T01:56:52;99822.84;;;3.87;100.00
71109;BME280;59614;51.012;-1.648;2023-04-22T01:59:18;99817.63;;;3.82;100.00
71109;BME280;59614;51.012;-1.648;2023-04-22T02:01:44;99816.75;;;3.73;100.00
71109;BME280;59614;51.012;-1.648;2023-04-22T02:04:09;99804.53;;;3.73;100.00
71109;BME280;59614;51.012;-1.648;2023-04-22T02:06:34;99814.09;;;3.65;100.00
71109;BME280;59614;51.012;-1.648;2023-04-22T02:09:00;99807.13;;;3.61;100.00
71109;BME280;59614;51.012;-1.648;2023-04-22T02:11:26;99810.59;;;3.52;100.00
71109;BME280;59614;51.012;-1.648;2023-04-22T02:13:51;99801.00;;;3.49;100.00
71109;BME280;59614;51.012;-1.648;2023-04-22T02:16:17;99800.16;;;3.47;100.00
71109;BME280;59614;51.012;-1.648;2023-04-22T02:18:42;99798.41;;;3.46;100.00
71109;BME280;59614;51.012;-1.648;2023-04-22T02:21:08;99801.91;;;3.45;100.00
71109;BME280;59614;51.012;-1.648;2023-04-22T02:23:34;99789.72;;;3.47;100.00
71109;BME280;59614;51.012;-1.648;2023-04-22T02:26:00;99790.56;;;3.40;100.00
71109;BME280;59614;51.012;-1.648;2023-04-22T02:28:27;99800.16;;;3.43;100.00
71109;BME280;59614;51.012;-1.648;2023-04-22T02:30:53;99795.81;;;3.42;100.00
71109;BME280;59614;51.012;-1.648;2023-04-22T02:33:18;99800.13;;;3.41;100.00
71109;BME280;59614;51.012;-1.648;2023-04-22T02:35:44;99787.88;;;3.18;100.00
71109;BME280;59614;51.012;-1.648;2023-04-22T02:38:09;99794.91;;;3.30;100.00
71109;BME280;59614;51.012;-1.648;2023-04-22T02:40:35;99791.41;;;3.30;100.00
71109;BME280;59614;51.012;-1.648;2023-04-22T02:43:00;99775.72;;;3.11;100.00
71109;BME280;59614;51.012;-1.648;2023-04-22T02:45:26;99780.09;;;3.26;100.00
71109;BME280;59614;51.012;-1.648;2023-04-22T02:47:51;99779.19;;;3.10;100.00
71109;BME280;59614;51.012;-1.648;2023-04-22T02:50:17;99780.94;;;3.17;100.00
71109;BME280;59614;51.012;-1.648;2023-04-22T02:52:42;99769.66;;;3.23;100.00
71109;BME280;59614;51.012;-1.648;2023-04-22T02:55:08;99778.34;;;3.25;100.00
71109;BME280;59614;51.012;-1.648;2023-04-22T02:57:34;99783.56;;;3.20;100.00
71109;BME280;59614;51.012;-1.648;2023-04-22T02:59:59;99789.66;;;3.22;100.00
71109;BME280;59614;51.012;-1.648;2023-04-22T03:02:25;99780.97;;;3.23;100.00
71109;BME280;59614;51.012;-1.648;2023-04-22T03:04:51;99780.97;;;3.23;100.00
71109;BME280;59614;51.012;-1.648;2023-04-22T03:07:18;99771.34;;;3.12;100.00
71109;BME280;59614;51.012;-1.648;2023-04-22T03:09:44;99774.00;;;3.13;100.00
71109;BME280;59614;51.012;-1.648;2023-04-22T03:12:09;99774.84;;;3.17;100.00
71109;BME280;59614;51.012;-1.648;2023-04-22T03:14:35;99761.78;;;3.06;100.00
71109;BME280;59614;51.012;-1.648;2023-04-22T03:17:00;99767.03;;;3.15;100.00
71109;BME280;59614;51.012;-1.648;2023-04-22T03:19:26;99766.16;;;3.16;100.00
71109;BME280;59614;51.012;-1.648;2023-04-22T03:21:51;99759.19;;;3.09;100.00
71109;BME280;59614;51.012;-1.648;2023-04-22T03:24:17;99763.50;;;3.01;100.00
71109;BME280;59614;51.012;-1.648;2023-04-22T03:26:43;99756.56;;;3.00;100.00
71109;BME280;59614;51.012;-1.648;2023-04-22T03:29:08;99752.19;;;3.00;100.00
71109;BME280;59614;51.012;-1.648;2023-04-22T03:31:34;99742.66;;;3.02;100.00
71109;BME280;59614;51.012;-1.648;2023-04-22T03:33:59;99747.03;;;3.16;100.00
71109;BME280;59614;51.012;-1.648;2023-04-22T03:36:26;99742.72;;;3.18;100.00
71109;BME280;59614;51.012;-1.648;2023-04-22T03:38:51;99741.81;;;3.22;100.00
71109;BME280;59614;51.012;-1.648;2023-04-22T03:41:17;99740.06;;;3.10;100.00
71109;BME280;59614;51.012;-1.648;2023-04-22T03:43:42;99742.69;;;3.19;100.00
71109;BME280;59614;51.012;-1.648;2023-04-22T03:46:08;99743.56;;;3.23;100.00
71109;BME280;59614;51.012;-1.648;2023-04-22T03:48:33;99751.41;;;3.31;100.00
71109;BME280;59614;51.012;-1.648;2023-04-22T03:51:00;99740.97;;;3.31;100.00
71109;BME280;59614;51.012;-1.648;2023-04-22T03:53:26;99741.84;;;3.30;100.00
71109;BME280;59614;51.012;-1.648;2023-04-22T03:55:51;99739.22;;;3.27;100.00
71109;BME280;59614;51.012;-1.648;2023-04-22T03:58:17;99737.53;;;3.41;100.00
71109;BME280;59614;51.012;-1.648;2023-04-22T04:00:43;99730.59;;;3.46;100.00
71109;BME280;59614;51.012;-1.648;2023-04-22T04:03:08;99735.81;;;3.52;100.00
71109;BME280;59614;51.012;-1.648;2023-04-22T04:05:34;99725.38;;;3.63;100.00
71109;BME280;59614;51.012;-1.648;2023-04-22T04:07:59;99729.72;;;3.52;100.00
71109;BME280;59614;51.012;-1.648;2023-04-22T04:10:25;99730.59;;;3.59;100.00
71109;BME280;59614;51.012;-1.648;2023-04-22T04:12:51;99733.22;;;3.63;100.00
71109;BME280;59614;51.012;-1.648;2023-04-22T04:15:16;99726.22;;;3.44;100.00
71109;BME280;59614;51.012;-1.648;2023-04-22T04:17:43;99731.47;;;3.50;100.00
71109;BME280;59614;51.012;-1.648;2023-04-22T04:20:10;99723.63;;;3.61;100.00
71109;BME280;59614;51.012;-1.648;2023-04-22T04:22:36;99715.81;;;3.81;100.00
71109;BME280;59614;51.012;-1.648;2023-04-22T04:25:02;99718.41;;;3.89;100.00
71109;BME280;59614;51.012;-1.648;2023-04-22T04:27:27;99721.91;;;4.03;100.00
71109;BME280;59614;51.012;-1.648;2023-04-22T04:29:53;99717.53;;;3.94;100.00
71109;BME280;59614;51.012;-1.648;2023-04-22T04:32:20;99717.53;;;4.10;100.00
71109;BME280;59614;51.012;-1.648;2023-04-22T04:34:46;99711.44;;;4.09;100.00
71109;BME280;59614;51.012;-1.648;2023-04-22T04:37:11;99710.56;;;3.95;100.00
71109;BME280;59614;51.012;-1.648;2023-04-22T04:39:37;99722.75;;;4.13;100.00
71109;BME280;59614;51.012;-1.648;2023-04-22T04:42:03;99709.69;;;4.19;100.00
71109;BME280;59614;51.012;-1.648;2023-04-22T04:44:28;99706.19;;;4.23;100.00
71109;BME280;59614;51.012;-1.648;2023-04-22T04:46:56;99702.72;;;4.26;100.00
71109;BME280;59614;51.012;-1.648;2023-04-22T04:49:22;99700.97;;;4.22;100.00
71109;BME280;59614;51.012;-1.648;2023-04-22T04:51:48;99700.09;;;4.12;100.00
71109;BME280;59614;51.012;-1.648;2023-04-22T04:54:14;99698.34;;;4.18;100.00
71109;BME280;59614;51.012;-1.648;2023-04-22T04:56:39;99692.25;;;4.30;100.00
71109;BME280;59614;51.012;-1.648;2023-04-22T04:59:05;99683.50;;;4.42;100.00
71109;BME280;59614;51.012;-1.648;2023-04-22T05:01:30;99689.56;;;4.52;100.00
71109;BME280;59614;51.012;-1.648;2023-04-22T05:03:56;99683.44;;;4.61;100.00
71109;BME280;59614;51.012;-1.648;2023-04-22T05:06:21;99683.41;;;4.64;100.00
71109;BME280;59614;51.012;-1.648;2023-04-22T05:08:47;99681.69;;;4.64;100.00
71109;BME280;59614;51.012;-1.648;2023-04-22T05:11:12;99690.47;;;4.46;100.00
71109;BME280;59614;51.012;-1.648;2023-04-22T05:13:38;99693.97;;;4.36;100.00
71109;BME280;59614;51.012;-1.648;2023-04-22T05:16:03;99697.38;;;4.57;100.00
71109;BME280;59614;51.012;-1.648;2023-04-22T05:18:29;99688.69;;;4.55;100.00
71109;BME280;59614;51.012;-1.648;2023-04-22T05:20:54;99690.38;;;4.65;100.00
71109;BME280;59614;51.012;-1.648;2023-04-22T05:23:22;99695.59;;;4.71;100.00
71109;BME280;59614;51.012;-1.648;2023-04-22T05:25:48;99691.25;;;4.62;100.00
71109;BME280;59614;51.012;-1.648;2023-04-22T05:28:13;99677.38;;;4.54;100.00
71109;BME280;59614;51.012;-1.648;2023-04-22T05:30:39;99678.28;;;4.36;100.00
71109;BME280;59614;51.012;-1.648;2023-04-22T05:33:04;99676.53;;;4.41;100.00
71109;BME280;59614;51.012;-1.648;2023-04-22T05:35:30;99677.38;;;4.48;100.00
71109;BME280;59614;51.012;-1.648;2023-04-22T05:37:55;99682.56;;;4.57;100.00
71109;BME280;59614;51.012;-1.648;2023-04-22T05:40:20;99689.53;;;4.57;100.00
71109;BME280;59614;51.012;-1.648;2023-04-22T05:42:46;99688.69;;;4.53;100.00
71109;BME280;59614;51.012;-1.648;2023-04-22T05:45:11;99679.06;;;4.61;100.00
71109;BME280;59614;51.012;-1.648;2023-04-22T05:47:37;99683.34;;;4.76;100.00
71109;BME280;59614;51.012;-1.648;2023-04-22T05:50:03;99685.03;;;4.90;100.00
71109;BME280;59614;51.012;-1.648;2023-04-22T05:52:28;99676.25;;;5.06;100.00
71109;BME280;59614;51.012;-1.648;2023-04-22T05:54:54;99663.16;;;5.05;100.00
71109;BME280;59614;51.012;-1.648;2023-04-22T05:57:19;99659.69;;;5.01;100.00
71109;BME280;59614;51.012;-1.648;2023-04-22T05:59:45;99657.03;;;5.07;100.00
71109;BME280;59614;51.012;-1.648;2023-04-22T06:02:10;99654.31;;;5.26;100.00
71109;BME280;59614;51.012;-1.648;2023-04-22T06:04:35;99658.56;;;5.41;100.00
71109;BME280;59614;51.012;-1.648;2023-04-22T06:07:01;99658.41;;;5.58;100.00
71109;BME280;59614;51.012;-1.648;2023-04-22T06:09:26;99660.78;;;5.87;100.00
71109;BME280;59614;51.012;-1.648;2023-04-22T06:11:52;99651.03;;;6.07;100.00
71109;BME280;59614;51.012;-1.648;2023-04-22T06:14:17;99659.50;;;6.30;100.00
71109;BME280;59614;51.012;-1.648;2023-04-22T06:16:42;99660.91;;;5.74;100.00
71109;BME280;59614;51.012;-1.648;2023-04-22T06:19:08;99666.19;;;5.67;100.00
71109;BME280;59614;51.012;-1.648;2023-04-22T06:21:33;99663.69;;;5.55;100.00
71109;BME280;59614;51.012;-1.648;2023-04-22T06:24:01;99674.22;;;5.46;100.00
71109;BME280;59614;51.012;-1.648;2023-04-22T06:26:26;99677.63;;;5.54;100.00
71109;BME280;59614;51.012;-1.648;2023-04-22T06:28:52;99675.94;;;5.50;100.00
71109;BME280;59614;51.012;-1.648;2023-04-22T06:31:18;99670.25;;;6.06;100.00
71109;BME280;59614;51.012;-1.648;2023-04-22T06:33:43;99673.22;;;5.61;100.00
71109;BME280;59614;51.012;-1.648;2023-04-22T06:36:09;99674.91;;;5.69;100.00
71109;BME280;59614;51.012;-1.648;2023-04-22T06:38:35;99674.69;;;5.94;100.00
71109;BME280;59614;51.012;-1.648;2023-04-22T06:41:00;99679.94;;;5.91;100.00
71109;BME280;59614;51.012;-1.648;2023-04-22T06:43:25;99678.69;;;6.32;100.00
71109;BME280;59614;51.012;-1.648;2023-04-22T06:45:51;99679.94;;;5.94;100.00
71109;BME280;59614;51.012;-1.648;2023-04-22T06:48:16;99674.50;;;6.14;100.00
71109;BME280;59614;51.012;-1.648;2023-04-22T06:50:42;99682.38;;;6.13;100.00
71109;BME280;59614;51.012;-1.648;2023-04-22T06:53:08;99683.91;;;6.32;100.00
71109;BME280;59614;51.012;-1.648;2023-04-22T06:55:34;99673.88;;;6.70;100.00
71109;BME280;59614;51.012;-1.648;2023-04-22T06:58:00;99675.59;;;6.73;100.00
71109;BME280;59614;51.012;-1.648;2023-04-22T07:00:25;99677.19;;;6.85;100.00
71109;BME280;59614;51.012;-1.648;2023-04-22T07:02:52;99682.19;;;7.03;100.00
71109;BME280;59614;51.012;-1.648;2023-04-22T07:05:17;99682.19;;;7.03;99.92
71109;BME280;59614;51.012;-1.648;2023-04-22T07:07:44;99673.41;;;7.04;99.72
71109;BME280;59614;51.012;-1.648;2023-04-22T07:10:11;99678.38;;;7.24;99.93
71109;BME280;59614;51.012;-1.648;2023-04-22T07:12:37;99672.31;;;7.21;99.22
71109;BME280;59614;51.012;-1.648;2023-04-22T07:15:03;99671.09;;;7.44;98.92
71109;BME280;59614;51.012;-1.648;2023-04-22T07:17:29;99671.47;;;7.19;98.81
71109;BME280;59614;51.012;-1.648;2023-04-22T07:19:54;99680.88;;;7.34;99.75
71109;BME280;59614;51.012;-1.648;2023-04-22T07:22:20;99681.53;;;7.48;99.41
71109;BME280;59614;51.012;-1.648;2023-04-22T07:24:45;99676.13;;;7.59;98.77
71109;BME280;59614;51.012;-1.648;2023-04-22T07:27:10;99676.72;;;7.75;97.58
71109;BME280;59614;51.012;-1.648;2023-04-22T07:29:36;99680.28;;;7.71;99.28
71109;BME280;59614;51.012;-1.648;2023-04-22T07:32:01;99678.50;;;7.73;97.81
71109;BME280;59614;51.012;-1.648;2023-04-22T07:34:27;99679.69;;;8.05;95.76
71109;BME280;59614;51.012;-1.648;2023-04-22T07:36:52;99686.06;;;7.92;96.20
71109;BME280;59614;51.012;-1.648;2023-04-22T07:39:18;99685.84;;;7.52;98.94
71109;BME280;59614;51.012;-1.648;2023-04-22T07:41:43;99682.84;;;7.76;98.92
71109;BME280;59614;51.012;-1.648;2023-04-22T07:44:09;99688.59;;;7.45;100.00
71109;BME280;59614;51.012;-1.648;2023-04-22T07:46:37;99682.19;;;7.63;99.18
71109;BME280;59614;51.012;-1.648;2023-04-22T07:49:02;99675.06;;;8.18;98.39
71109;BME280;59614;51.012;-1.648;2023-04-22T07:51:27;99681.38;;;8.09;97.20
71109;BME280;59614;51.012;-1.648;2023-04-22T07:53:53;99685.16;;;7.93;97.48
71109;BME280;59614;51.012;-1.648;2023-04-22T07:56:19;99686.88;;;7.95;97.92
71109;BME280;59614;51.012;-1.648;2023-04-22T07:58:45;99694.72;;;7.98;97.85
71109;BME280;59614;51.012;-1.648;2023-04-22T08:01:12;99694.66;;;8.00;97.45
71109;BME280;59614;51.012;-1.648;2023-04-22T08:03:37;99695.84;;;7.83;97.44
71109;BME280;59614;51.012;-1.648;2023-04-22T08:06:02;99689.44;;;7.98;98.57
71109;BME280;59614;51.012;-1.648;2023-04-22T08:08:28;99691.06;;;8.07;97.30
71109;BME280;59614;51.012;-1.648;2023-04-22T08:10:53;99684.28;;;8.42;95.72
71109;BME280;59614;51.012;-1.648;2023-04-22T08:13:19;99681.09;;;8.70;96.21
71109;BME280;59614;51.012;-1.648;2023-04-22T08:15:44;99687.28;;;8.22;94.93
71109;BME280;59614;51.012;-1.648;2023-04-22T08:18:10;99685.41;;;8.29;95.99
71109;BME280;59614;51.012;-1.648;2023-04-22T08:20:35;99691.34;;;7.88;97.30
71109;BME280;59614;51.012;-1.648;2023-04-22T08:23:00;99686.44;;;8.22;96.92
71109;BME280;59614;51.012;-1.648;2023-04-22T08:25:26;99684.50;;;8.30;97.33
71109;BME280;59614;51.012;-1.648;2023-04-22T08:27:52;99678.34;;;8.31;95.55
71109;BME280;59614;51.012;-1.648;2023-04-22T08:30:18;99678.72;;;8.58;95.20
71109;BME280;59614;51.012;-1.648;2023-04-22T08:32:43;99679.84;;;8.88;93.17
71109;BME280;59614;51.012;-1.648;2023-04-22T08:35:10;99671.88;;;9.32;92.12
71109;BME280;59614;51.012;-1.648;2023-04-22T08:37:35;99653.03;;;9.49;89.84
71109;BME280;59614;51.012;-1.648;2023-04-22T08:40:01;99659.59;;;10.35;88.98
71109;BME280;59614;51.012;-1.648;2023-04-22T08:42:27;99662.53;;;10.24;89.72
71109;BME280;59614;51.012;-1.648;2023-04-22T08:44:53;99664.22;;;9.94;88.78
71109;BME280;59614;51.012;-1.648;2023-04-22T08:47:19;99652.22;;;10.15;87.94
71109;BME280;59614;51.012;-1.648;2023-04-22T08:49:45;99655.81;;;10.75;85.86
71109;BME280;59614;51.012;-1.648;2023-04-22T08:52:11;99647.47;;;11.74;87.59
71109;BME280;59614;51.012;-1.648;2023-04-22T08:54:39;99638.13;;;12.40;82.73
71109;BME280;59614;51.012;-1.648;2023-04-22T08:57:06;99645.56;;;12.78;81.16
71109;BME280;59614;51.012;-1.648;2023-04-22T08:59:33;99634.75;;;12.84;79.92
71109;BME280;59614;51.012;-1.648;2023-04-22T09:02:00;99642.34;;;12.70;78.24
71109;BME280;59614;51.012;-1.648;2023-04-22T09:04:26;99641.31;;;12.74;77.39
71109;BME280;59614;51.012;-1.648;2023-04-22T09:06:52;99641.75;;;12.85;78.41
71109;BME280;59614;51.012;-1.648;2023-04-22T09:09:18;99632.78;;;12.18;77.01
71109;BME280;59614;51.012;-1.648;2023-04-22T09:11:44;99630.38;;;12.59;77.79
71109;BME280;59614;51.012;-1.648;2023-04-22T09:14:09;99640.47;;;11.72;76.46
71109;BME280;59614;51.012;-1.648;2023-04-22T09:16:40;99619.97;;;12.05;76.74
71109;BME280;59614;51.012;-1.648;2023-04-22T09:19:13;99629.72;;;11.51;76.98
71109;BME280;59614;51.012;-1.648;2023-04-22T09:21:40;99621.47;;;11.61;76.81
71109;BME280;59614;51.012;-1.648;2023-04-22T09:24:07;99619.75;;;12.61;77.04
71109;BME280;59614;51.012;-1.648;2023-04-22T09:26:32;99611.25;;;12.27;73.66
71109;BME280;59614;51.012;-1.648;2023-04-22T09:28:58;99618.94;;;11.31;75.37
71109;BME280;59614;51.012;-1.648;2023-04-22T09:31:26;99618.22;;;11.52;75.80
71109;BME280;59614;51.012;-1.648;2023-04-22T09:33:54;99615.03;;;12.45;76.97
71109;BME280;59614;51.012;-1.648;2023-04-22T09:36:30;99613.50;;;12.62;69.82
71109;BME280;59614;51.012;-1.648;2023-04-22T09:38:58;99615.03;;;11.95;71.52
71109;BME280;59614;51.012;-1.648;2023-04-22T09:41:34;99615.19;;;12.41;74.23
71109;BME280;59614;51.012;-1.648;2023-04-22T09:44:02;99605.75;;;13.03;73.78
71109;BME280;59614;51.012;-1.648;2023-04-22T09:46:29;99620.97;;;12.74;72.06
71109;BME280;59614;51.012;-1.648;2023-04-22T09:48:56;99618.81;;;12.62;73.29
71109;BME280;59614;51.012;-1.648;2023-04-22T09:51:23;99610.78;;;12.16;74.07
71109;BME280;59614;51.012;-1.648;2023-04-22T09:54:09;99610.91;;;13.28;74.05
71109;BME280;59614;51.012;-1.648;2023-04-22T09:59:08;99599.53;;;12.58;71.82
71109;BME280;59614;51.012;-1.648;2023-04-22T10:01:35;99600.31;;;13.06;74.21
71109;BME280;59614;51.012;-1.648;2023-04-22T10:04:01;99605.28;;;12.70;76.16
71109;BME280;59614;51.012;-1.648;2023-04-22T10:06:27;99611.66;;;12.40;82.61
71109;BME280;59614;51.012;-1.648;2023-04-22T10:08:52;99605.88;;;12.05;80.99
71109;BME280;59614;51.012;-1.648;2023-04-22T10:11:18;99609.66;;;11.98;80.85
71109;BME280;59614;51.012;-1.648;2023-04-22T10:13:44;99612.03;;;12.05;87.64
71109;BME280;59614;51.012;-1.648;2023-04-22T10:16:09;99609.47;;;11.77;81.85
71109;BME280;59614;51.012;-1.648;2023-04-22T10:18:38;99598.78;;;11.80;82.05
71109;BME280;59614;51.012;-1.648;2023-04-22T10:21:04;99603.22;;;11.80;86.81
71109;BME280;59614;51.012;-1.648;2023-04-22T10:23:31;99606.16;;;11.70;85.34
71109;BME280;59614;51.012;-1.648;2023-04-22T10:25:57;99611.44;;;11.97;86.94
71109;BME280;59614;51.012;-1.648;2023-04-22T10:28:24;99607.91;;;11.97;88.26
71109;BME280;59614;51.012;-1.648;2023-04-22T10:30:52;99602.78;;;12.17;90.24
71109;BME280;59614;51.012;-1.648;2023-04-22T10:36:21;99608.25;;;12.13;86.28
71109;BME280;59614;51.012;-1.648;2023-04-22T10:41:14;99625.25;;;11.79;82.78
71109;BME280;59614;51.012;-1.648;2023-04-22T10:49:09;99627.97;;;11.23;80.54
71109;BME280;59614;51.012;-1.648;2023-04-22T10:54:05;99622.75;;;11.49;80.53
71109;BME280;59614;51.012;-1.648;2023-04-22T10:56:31;99621.09;;;11.46;79.43
71109;BME280;59614;51.012;-1.648;2023-04-22T10:58:56;99616.25;;;12.11;81.48
71109;BME280;59614;51.012;-1.648;2023-04-22T11:01:22;99612.56;;;12.87;80.13
71109;BME280;59614;51.012;-1.648;2023-04-22T11:03:49;99610.88;;;13.73;78.48
71109;BME280;59614;51.012;-1.648;2023-04-22T11:06:17;99610.16;;;13.69;77.12
71109;BME280;59614;51.012;-1.648;2023-04-22T11:08:49;99613.38;;;13.33;74.04
71109;BME280;59614;51.012;-1.648;2023-04-22T11:11:31;99613.22;;;13.81;73.27
71109;BME280;59614;51.012;-1.648;2023-04-22T11:13:57;99600.84;;;12.94;67.36
71109;BME280;59614;51.012;-1.648;2023-04-22T11:16:22;99603.91;;;13.50;72.15
71109;BME280;59614;51.012;-1.648;2023-04-22T11:18:48;99603.69;;;12.88;71.17
71109;BME280;59614;51.012;-1.648;2023-04-22T11:21:14;99604.28;;;13.40;66.99
71109;BME280;59614;51.012;-1.648;2023-04-22T11:23:48;99607.28;;;12.39;67.72
71109;BME280;59614;51.012;-1.648;2023-04-22T11:26:15;99603.97;;;12.58;70.81
71109;BME280;59614;51.012;-1.648;2023-04-22T11:28:47;99604.72;;;12.61;66.45
71109;BME280;59614;51.012;-1.648;2023-04-22T11:31:13;99604.66;;;12.39;69.23
71109;BME280;59614;51.012;-1.648;2023-04-22T11:33:39;99616.78;;;12.69;70.54
71109;BME280;59614;51.012;-1.648;2023-04-22T11:36:14;99615.75;;;12.49;69.25
71109;BME280;59614;51.012;-1.648;2023-04-22T11:38:40;99607.28;;;12.63;72.02
71109;BME280;59614;51.012;-1.648;2023-04-22T11:41:05;99613.22;;;12.70;72.75
71109;BME280;59614;51.012;-1.648;2023-04-22T11:43:31;99608.66;;;12.73;70.61
71109;BME280;59614;51.012;-1.648;2023-04-22T11:45:56;99610.22;;;13.23;67.96
71109;BME280;59614;51.012;-1.648;2023-04-22T11:48:22;99606.31;;;13.77;66.34
71109;BME280;59614;51.012;-1.648;2023-04-22T11:50:49;99600.53;;;14.08;63.66
71109;BME280;59614;51.012;-1.648;2023-04-22T11:53:17;99599.38;;;15.11;62.64
71109;BME280;59614;51.012;-1.648;2023-04-22T11:55:45;99599.63;;;15.96;59.23
71109;BME280;59614;51.012;-1.648;2023-04-22T11:58:33;99596.44;;;16.23;57.97
71109;BME280;59614;51.012;-1.648;2023-04-22T12:00:58;99598.38;;;15.50;58.68
71109;BME280;59614;51.012;-1.648;2023-04-22T12:03:25;99597.66;;;15.47;60.46
71109;BME280;59614;51.012;-1.648;2023-04-22T12:05:57;99602.50;;;15.02;60.53
71109;BME280;59614;51.012;-1.648;2023-04-22T12:08:36;99615.97;;;14.19;57.01
71109;BME280;59614;51.012;-1.648;2023-04-22T12:11:07;99609.75;;;13.13;61.14
71109;BME280;59614;51.012;-1.648;2023-04-22T12:16:04;99616.81;;;13.57;61.92
71109;BME280;59614;51.012;-1.648;2023-04-22T12:18:35;99617.38;;;12.99;62.08
71109;BME280;59614;51.012;-1.648;2023-04-22T12:23:29;99617.88;;;12.63;64.47
71109;BME280;59614;51.012;-1.648;2023-04-22T12:26:05;99614.47;;;12.35;63.79
71109;BME280;59614;51.012;-1.648;2023-04-22T12:28:30;99613.53;;;12.38;64.28
71109;BME280;59614;51.012;-1.648;2023-04-22T12:30:55;99615.28;;;13.07;62.76
71109;BME280;59614;51.012;-1.648;2023-04-22T12:33:21;99611.88;;;13.70;60.70
71109;BME280;59614;51.012;-1.648;2023-04-22T12:35:46;99610.69;;;13.12;61.02
71109;BME280;59614;51.012;-1.648;2023-04-22T12:38:14;99615.47;;;13.03;62.81
71109;BME280;59614;51.012;-1.648;2023-04-22T12:40:40;99618.75;;;13.54;65.10
71109;BME280;59614;51.012;-1.648;2023-04-22T12:43:05;99616.94;;;13.32;63.41
71109;BME280;59614;51.012;-1.648;2023-04-22T12:45:31;99622.28;;;13.10;63.48
71109;BME280;59614;51.012;-1.648;2023-04-22T12:47:56;99618.00;;;13.72;66.10
71109;BME280;59614;51.012;-1.648;2023-04-22T12:50:22;99618.22;;;13.46;62.46
71109;BME280;59614;51.012;-1.648;2023-04-22T12:52:47;99614.47;;;13.93;63.18
71109;BME280;59614;51.012;-1.648;2023-04-22T12:55:12;99621.28;;;13.12;62.63
71109;BME280;59614;51.012;-1.648;2023-04-22T12:57:38;99612.88;;;14.49;58.70
71109;BME280;59614;51.012;-1.648;2023-04-22T13:00:05;99626.19;;;13.87;62.48
71109;BME280;59614;51.012;-1.648;2023-04-22T13:02:35;99625.16;;;12.58;60.22
71109;BME280;59614;51.012;-1.648;2023-04-22T13:05:00;99616.72;;;12.94;61.33
71109;BME280;59614;51.012;-1.648;2023-04-22T13:07:25;99628.94;;;12.50;59.92
71109;BME280;59614;51.012;-1.648;2023-04-22T13:09:51;99619.84;;;12.58;61.95